Mar Maria — 9HA2859 — position and weather

sailwx.info

Track history (hours):
 
Tides and Currents Weather Stations Pressure Air Temp Water Temp Dewpoint Dewpoint Depression Visibility Wind Speed Wind Dir Waves Ship Positions

Mar Maria

Last reported at 2015-Jan-26 01:33 UTC. Time now 2015-Jan-26 02:26 UTC.
Position N 51°56' E 003°36'.

Length 103 m; draft 5.4 m.

Type: Ship (hazmat cat B). MMSI: 256435000.

Date/timePositionNaut miles runAvg speedWind from/ knotsBaromVisibWave heightAir tempDewpointWater temp
2015-Jan-26 01:33N 51°56' E 003°36'0 0.0
2015-Jan-26 00:24N 51°56' E 003°36'0 0.0
2015-Jan-25 23:21N 51°56' E 003°36'0 0.1
2015-Jan-25 21:33N 51°56' E 003°36'0 0.0
2015-Jan-25 20:27N 51°56' E 003°36'0 0.0
2015-Jan-25 17:09N 51°56' E 003°36'0 0.0
2015-Jan-25 15:33N 51°56' E 003°36'0 0.1
2015-Jan-25 14:21N 51°56' E 003°36'0 0.1
2015-Jan-25 13:33N 51°56' E 003°36'0 0.0
2015-Jan-25 12:30N 51°56' E 003°36'0 0.0
2015-Jan-25 10:18N 51°56' E 003°36'0 0.0
2015-Jan-25 08:24N 51°56' E 003°36'0 0.0
2015-Jan-25 06:33N 51°56' E 003°36'0 0.0
2015-Jan-25 05:33N 51°56' E 003°36'0 0.0
2015-Jan-25 04:28N 51°56' E 003°36'0 0.1
2015-Jan-25 02:13N 51°56' E 003°36'0 0.0
2015-Jan-25 01:13N 51°56' E 003°36'0 0.0
2015-Jan-25 00:22N 51°56' E 003°36'0 0.0
2015-Jan-24 22:31N 51°56' E 003°36'0 0.1
2015-Jan-24 21:31N 51°56' E 003°36'0 0.1
2015-Jan-24 19:05N 51°56' E 003°36'1 2.3
2015-Jan-24 18:32N 51°56' E 003°34'10 9.8
2015-Jan-24 17:32N 51°55' E 003°18'36 1.8
2015-Jan-23 22:08N 51°38' E 002°28'5 9.0
2015-Jan-23 21:32N 51°34' E 002°21'9 9.5
2015-Jan-23 20:33N 51°27' E 002°11'8 8.1
2015-Jan-23 19:33N 51°24' E 001°59'9 9.1
2015-Jan-23 18:34N 51°30' E 001°49'1211.5
2015-Jan-23 17:33N 51°27' E 001°31'1010.0
2015-Jan-23 16:33N 51°29' E 001°15'1313.3
2015-Jan-23 15:34N 51°29' E 000°54'1111.3
2015-Jan-23 14:34N 51°30' E 000°35'8 7.9
2015-Jan-23 13:34N 51°27' E 000°24'5 4.9
2015-Jan-23 12:34N 51°28' E 000°16'0 0.0
2015-Jan-23 11:34N 51°28' E 000°16'0 0.0
2015-Jan-23 10:34N 51°28' E 000°16'0 0.0
2015-Jan-23 09:34N 51°28' E 000°16'0 0.0
2015-Jan-23 08:34N 51°28' E 000°16'0 0.0
2015-Jan-23 07:33N 51°28' E 000°16'0 0.0
2015-Jan-23 06:34N 51°28' E 000°16'0 0.0
2015-Jan-23 05:33N 51°28' E 000°16'0 0.0
2015-Jan-23 04:34N 51°28' E 000°16'0 0.0
2015-Jan-23 03:33N 51°28' E 000°16'0 0.0
2015-Jan-23 02:33N 51°28' E 000°16'0 0.0
2015-Jan-23 01:33N 51°28' E 000°16'0 0.0
2015-Jan-23 00:34N 51°28' E 000°16'0 0.0
2015-Jan-22 23:34N 51°28' E 000°16'0 0.0
2015-Jan-22 22:34N 51°28' E 000°16'0 0.0
2015-Jan-22 21:34N 51°28' E 000°16'0 0.0
2015-Jan-22 20:34N 51°28' E 000°16'0 0.0
2015-Jan-22 19:34N 51°28' E 000°16'0 0.0
2015-Jan-22 18:33N 51°28' E 000°16'0 0.0
2015-Jan-22 17:34N 51°28' E 000°16'0 0.0
2015-Jan-22 16:33N 51°28' E 000°16'1 1.4
2015-Jan-22 15:34N 51°28' E 000°18'7 6.9
2015-Jan-22 14:33N 51°30' E 000°29'8 8.4
2015-Jan-22 13:33N 51°30' E 000°42'3 3.0
2015-Jan-22 12:33N 51°30' E 000°47'0 0.1
2015-Jan-22 11:33N 51°30' E 000°47'0 0.0
2015-Jan-22 10:33N 51°30' E 000°47'0 0.0
2015-Jan-22 09:33N 51°30' E 000°47'0 0.1
2015-Jan-22 08:33N 51°30' E 000°48'0 0.0
2015-Jan-22 07:33N 51°30' E 000°48'0 0.0
2015-Jan-22 06:34N 51°30' E 000°48'0 0.0
2015-Jan-22 05:33N 51°30' E 000°48'0 0.0
2015-Jan-22 04:33N 51°30' E 000°48'0 0.0
2015-Jan-22 03:33N 51°30' E 000°48'0 0.0
2015-Jan-22 02:33N 51°30' E 000°47'0 0.1
2015-Jan-22 01:34N 51°30' E 000°47'0 0.1
2015-Jan-22 00:33N 51°30' E 000°47'0 0.0
2015-Jan-21 23:33N 51°30' E 000°47'0 0.0
2015-Jan-21 22:50N 51°30' E 000°47'0 0.0
2015-Jan-21 22:46N 51°30' E 000°47'0 0.0
2015-Jan-21 22:34N 51°30' E 000°47'0 0.0
2015-Jan-21 21:34N 51°30' E 000°47'0 0.0
2015-Jan-21 20:34N 51°30' E 000°47'0 0.1
2015-Jan-21 19:34N 51°30' E 000°48'0 0.0
2015-Jan-21 18:34N 51°30' E 000°48'0 0.0
2015-Jan-21 17:34N 51°30' E 000°48'0 0.0
2015-Jan-21 16:34N 51°30' E 000°48'0 0.0
2015-Jan-21 15:33N 51°30' E 000°48'0 0.0
2015-Jan-21 14:33N 51°30' E 000°48'0 0.1
2015-Jan-21 13:34N 51°30' E 000°47'0 0.1
2015-Jan-21 12:33N 51°30' E 000°47'0 0.0
2015-Jan-21 11:33N 51°30' E 000°47'0 0.0
2015-Jan-21 10:34N 51°30' E 000°47'0 0.0
2015-Jan-21 09:34N 51°30' E 000°47'0 0.0
2015-Jan-21 08:33N 51°30' E 000°47'0 0.1
2015-Jan-21 07:34N 51°30' E 000°47'0 0.0
2015-Jan-21 06:33N 51°30' E 000°47'0 0.1
2015-Jan-21 05:34N 51°30' E 000°47'0 0.0
2015-Jan-21 04:34N 51°30' E 000°48'0 0.0
2015-Jan-21 03:34N 51°30' E 000°48'0 0.0
2015-Jan-21 02:34N 51°30' E 000°48'0 0.1
2015-Jan-21 01:34N 51°30' E 000°47'0 0.1
2015-Jan-21 00:34N 51°30' E 000°47'0 0.0
2015-Jan-20 23:33N 51°30' E 000°47'0 0.0
2015-Jan-20 22:33N 51°30' E 000°47'0 0.0
2015-Jan-20 21:33N 51°30' E 000°47'0 0.0
2015-Jan-20 20:34N 51°30' E 000°47'0 0.1
2015-Jan-20 19:33N 51°30' E 000°47'0 0.1
2015-Jan-20 18:33N 51°30' E 000°48'0 0.0
2015-Jan-20 17:33N 51°30' E 000°48'0 0.0
2015-Jan-20 16:34N 51°30' E 000°48'0 0.0
2015-Jan-20 15:33N 51°30' E 000°48'0 0.0
2015-Jan-20 14:33N 51°30' E 000°48'0 0.0
2015-Jan-20 13:33N 51°30' E 000°48'0 0.1
2015-Jan-20 12:34N 51°30' E 000°47'0 0.1
2015-Jan-20 11:34N 51°30' E 000°47'0 0.0
2015-Jan-20 10:33N 51°30' E 000°47'0 0.0
2015-Jan-20 09:34N 51°30' E 000°47'0 0.0
2015-Jan-20 08:33N 51°30' E 000°47'0 0.1
2015-Jan-20 07:33N 51°30' E 000°47'0 0.1
2015-Jan-20 06:33N 51°30' E 000°48'0 0.0
2015-Jan-20 05:33N 51°30' E 000°48'0 0.0
2015-Jan-20 04:33N 51°30' E 000°48'0 0.0
2015-Jan-20 03:33N 51°30' E 000°48'0 0.0
2015-Jan-20 02:33N 51°30' E 000°48'0 0.0
2015-Jan-20 01:33N 51°30' E 000°48'0 0.1
2015-Jan-20 00:34N 51°30' E 000°47'0 0.1
2015-Jan-19 23:33N 51°30' E 000°47'0 0.0
2015-Jan-19 22:34N 51°30' E 000°47'0 0.0
2015-Jan-19 21:33N 51°30' E 000°47'0 0.0
2015-Jan-19 20:33N 51°30' E 000°47'0 0.0
2015-Jan-19 19:33N 51°30' E 000°47'0 0.0
2015-Jan-19 18:33N 51°30' E 000°47'0 0.1
2015-Jan-19 17:33N 51°30' E 000°48'0 0.0
2015-Jan-19 16:33N 51°30' E 000°48'0 0.0
2015-Jan-19 15:32N 51°30' E 000°48'0 0.0
2015-Jan-19 14:34N 51°30' E 000°48'0 0.0
2015-Jan-19 13:32N 51°30' E 000°48'0 0.0
2015-Jan-19 12:33N 51°30' E 000°48'0 0.1
2015-Jan-19 11:33N 51°30' E 000°47'0 0.0
2015-Jan-19 10:33N 51°30' E 000°47'0 0.0
2015-Jan-19 09:33N 51°30' E 000°47'0 0.0
2015-Jan-19 08:33N 51°30' E 000°47'0 0.0
2015-Jan-19 07:33N 51°30' E 000°47'0 0.0
2015-Jan-19 06:33N 51°30' E 000°47'0 0.1
2015-Jan-19 05:33N 51°30' E 000°48'0 0.0
2015-Jan-19 04:33N 51°30' E 000°48'0 0.0
2015-Jan-19 03:33N 51°30' E 000°48'0 0.0
2015-Jan-19 02:33N 51°30' E 000°48'0 0.0
2015-Jan-19 01:32N 51°30' E 000°48'0 0.0
2015-Jan-19 00:34N 51°30' E 000°48'0 0.0
2015-Jan-18 23:33N 51°30' E 000°48'0 0.1
2015-Jan-18 22:33N 51°30' E 000°47'0 0.0
2015-Jan-18 21:32N 51°30' E 000°47'0 0.0
2015-Jan-18 20:33N 51°30' E 000°47'0 0.0
2015-Jan-18 19:33N 51°30' E 000°47'0 0.0
2015-Jan-18 18:33N 51°30' E 000°47'0 0.1
2015-Jan-18 17:33N 51°30' E 000°47'0 0.1
2015-Jan-18 16:33N 51°30' E 000°48'0 0.0
2015-Jan-18 15:33N 51°30' E 000°48'0 0.0
2015-Jan-18 14:33N 51°30' E 000°48'0 0.0
2015-Jan-18 13:33N 51°30' E 000°48'0 0.0
2015-Jan-18 12:33N 51°30' E 000°48'0 0.0
2015-Jan-18 11:33N 51°30' E 000°48'0 0.1
2015-Jan-18 10:33N 51°30' E 000°47'0 0.0
2015-Jan-18 09:33N 51°30' E 000°47'0 0.0
2015-Jan-18 08:33N 51°30' E 000°47'0 0.0
2015-Jan-18 07:34N 51°30' E 000°47'0 0.0
2015-Jan-18 06:33N 51°30' E 000°47'0 0.0
2015-Jan-18 05:33N 51°30' E 000°47'0 0.1
2015-Jan-18 04:33N 51°30' E 000°47'0 0.1
2015-Jan-18 03:33N 51°30' E 000°48'0 0.0
2015-Jan-18 02:33N 51°30' E 000°48'0 0.0
2015-Jan-18 01:33N 51°30' E 000°48'0 0.0
2015-Jan-18 00:33N 51°30' E 000°48'0 0.0
2015-Jan-17 23:33N 51°30' E 000°47'0 0.1
2015-Jan-17 22:33N 51°30' E 000°47'0 0.1
2015-Jan-17 21:34N 51°30' E 000°47'0 0.0
2015-Jan-17 20:33N 51°30' E 000°47'0 0.0
2015-Jan-17 19:33N 51°30' E 000°47'0 0.0
2015-Jan-17 18:33N 51°30' E 000°47'0 0.0
2015-Jan-17 17:34N 51°30' E 000°47'0 0.1
2015-Jan-17 16:33N 51°30' E 000°47'0 0.1
2015-Jan-17 15:34N 51°30' E 000°48'0 0.0
2015-Jan-17 14:34N 51°30' E 000°48'0 0.0
2015-Jan-17 13:33N 51°30' E 000°48'0 0.0
2015-Jan-17 12:34N 51°30' E 000°48'0 0.0
2015-Jan-17 11:34N 51°30' E 000°48'0 0.0
2015-Jan-17 10:34N 51°30' E 000°48'0 0.1
2015-Jan-17 09:34N 51°30' E 000°47'0 0.1
2015-Jan-17 08:34N 51°30' E 000°47'0 0.1
2015-Jan-17 07:34N 51°30' E 000°47'0 0.0
2015-Jan-17 06:34N 51°30' E 000°47'0 0.0
2015-Jan-17 05:34N 51°30' E 000°47'0 0.1
2015-Jan-17 04:34N 51°30' E 000°47'0 0.0
2015-Jan-17 03:34N 51°30' E 000°47'0 0.0
2015-Jan-17 02:34N 51°30' E 000°47'0 0.0
2015-Jan-17 01:32N 51°30' E 000°47'0 0.0
2015-Jan-17 00:34N 51°30' E 000°47'0 0.0
2015-Jan-16 23:34N 51°30' E 000°47'0 0.0
2015-Jan-16 22:33N 51°30' E 000°47'0 0.0
2015-Jan-16 21:34N 51°30' E 000°47'0 0.0
2015-Jan-16 20:34N 51°30' E 000°47'0 0.1
2015-Jan-16 19:33N 51°30' E 000°47'1 1.5
2015-Jan-16 18:33N 51°30' E 000°50'1111.3
2015-Jan-16 17:34N 51°29' E 001°08'1111.2
2015-Jan-16 16:33N 51°28' E 001°25'2 2.4
2015-Jan-16 15:33N 51°25' E 001°27'0 0.0
2015-Jan-16 14:33N 51°25' E 001°27'0 0.0
2015-Jan-16 13:34N 51°25' E 001°27'0 0.0
2015-Jan-16 12:33N 51°25' E 001°27'0 0.0
2015-Jan-16 11:33N 51°25' E 001°27'0 0.0
2015-Jan-16 10:34N 51°25' E 001°27'0 0.1
2015-Jan-16 09:34N 51°25' E 001°27'0 0.0
2015-Jan-16 08:33N 51°25' E 001°27'0 0.1
2015-Jan-16 07:33N 51°25' E 001°27'0 0.0
2015-Jan-16 06:33N 51°25' E 001°27'0 0.0
2015-Jan-16 05:33N 51°25' E 001°26'0 0.0
2015-Jan-16 04:33N 51°25' E 001°27'0 0.2
2015-Jan-16 03:34N 51°25' E 001°27'0 0.0
2015-Jan-16 02:33N 51°25' E 001°27'0 0.0
2015-Jan-16 01:33N 51°25' E 001°27'  
Track history (hours):
 
Tides and Currents Weather Stations Pressure Air Temp Water Temp Dewpoint Dewpoint Depression Visibility Wind Speed Wind Dir Waves Ship Positions

Mar Maria

Last reported at 2015-Jan-26 01:33 UTC. Time now 2015-Jan-26 02:26 UTC.
Position N 51°56' E 003°36'.

Length 103 m; draft 5.4 m.

Type: Ship (hazmat cat B). MMSI: 256435000.

Date/timePositionNaut miles runAvg speedWind from/ knotsBaromVisibWave heightAir tempDewpointWater temp
2015-Jan-26 01:33N 51°56' E 003°36'0 0.0
2015-Jan-26 00:24N 51°56' E 003°36'0 0.0
2015-Jan-25 23:21N 51°56' E 003°36'0 0.1
2015-Jan-25 21:33N 51°56' E 003°36'0 0.0
2015-Jan-25 20:27N 51°56' E 003°36'0 0.0
2015-Jan-25 17:09N 51°56' E 003°36'0 0.0
2015-Jan-25 15:33N 51°56' E 003°36'0 0.1
2015-Jan-25 14:21N 51°56' E 003°36'0 0.1
2015-Jan-25 13:33N 51°56' E 003°36'0 0.0
2015-Jan-25 12:30N 51°56' E 003°36'0 0.0
2015-Jan-25 10:18N 51°56' E 003°36'0 0.0
2015-Jan-25 08:24N 51°56' E 003°36'0 0.0
2015-Jan-25 06:33N 51°56' E 003°36'0 0.0
2015-Jan-25 05:33N 51°56' E 003°36'0 0.0
2015-Jan-25 04:28N 51°56' E 003°36'0 0.1
2015-Jan-25 02:13N 51°56' E 003°36'0 0.0
2015-Jan-25 01:13N 51°56' E 003°36'0 0.0
2015-Jan-25 00:22N 51°56' E 003°36'0 0.0
2015-Jan-24 22:31N 51°56' E 003°36'0 0.1
2015-Jan-24 21:31N 51°56' E 003°36'0 0.1
2015-Jan-24 19:05N 51°56' E 003°36'1 2.3
2015-Jan-24 18:32N 51°56' E 003°34'10 9.8
2015-Jan-24 17:32N 51°55' E 003°18'36 1.8
2015-Jan-23 22:08N 51°38' E 002°28'5 9.0
2015-Jan-23 21:32N 51°34' E 002°21'9 9.5
2015-Jan-23 20:33N 51°27' E 002°11'8 8.1
2015-Jan-23 19:33N 51°24' E 001°59'9 9.1
2015-Jan-23 18:34N 51°30' E 001°49'1211.5
2015-Jan-23 17:33N 51°27' E 001°31'1010.0
2015-Jan-23 16:33N 51°29' E 001°15'1313.3
2015-Jan-23 15:34N 51°29' E 000°54'1111.3
2015-Jan-23 14:34N 51°30' E 000°35'8 7.9
2015-Jan-23 13:34N 51°27' E 000°24'5 4.9
2015-Jan-23 12:34N 51°28' E 000°16'0 0.0
2015-Jan-23 11:34N 51°28' E 000°16'0 0.0
2015-Jan-23 10:34N 51°28' E 000°16'0 0.0
2015-Jan-23 09:34N 51°28' E 000°16'0 0.0
2015-Jan-23 08:34N 51°28' E 000°16'0 0.0
2015-Jan-23 07:33N 51°28' E 000°16'0 0.0
2015-Jan-23 06:34N 51°28' E 000°16'0 0.0
2015-Jan-23 05:33N 51°28' E 000°16'0 0.0
2015-Jan-23 04:34N 51°28' E 000°16'0 0.0
2015-Jan-23 03:33N 51°28' E 000°16'0 0.0
2015-Jan-23 02:33N 51°28' E 000°16'0 0.0
2015-Jan-23 01:33N 51°28' E 000°16'0 0.0
2015-Jan-23 00:34N 51°28' E 000°16'0 0.0
2015-Jan-22 23:34N 51°28' E 000°16'0 0.0
2015-Jan-22 22:34N 51°28' E 000°16'0 0.0
2015-Jan-22 21:34N 51°28' E 000°16'0 0.0
2015-Jan-22 20:34N 51°28' E 000°16'0 0.0
2015-Jan-22 19:34N 51°28' E 000°16'0 0.0
2015-Jan-22 18:33N 51°28' E 000°16'0 0.0
2015-Jan-22 17:34N 51°28' E 000°16'0 0.0
2015-Jan-22 16:33N 51°28' E 000°16'1 1.4
2015-Jan-22 15:34N 51°28' E 000°18'7 6.9
2015-Jan-22 14:33N 51°30' E 000°29'8 8.4
2015-Jan-22 13:33N 51°30' E 000°42'3 3.0
2015-Jan-22 12:33N 51°30' E 000°47'0 0.1
2015-Jan-22 11:33N 51°30' E 000°47'0 0.0
2015-Jan-22 10:33N 51°30' E 000°47'0 0.0
2015-Jan-22 09:33N 51°30' E 000°47'0 0.1
2015-Jan-22 08:33N 51°30' E 000°48'0 0.0
2015-Jan-22 07:33N 51°30' E 000°48'0 0.0
2015-Jan-22 06:34N 51°30' E 000°48'0 0.0
2015-Jan-22 05:33N 51°30' E 000°48'0 0.0
2015-Jan-22 04:33N 51°30' E 000°48'0 0.0
2015-Jan-22 03:33N 51°30' E 000°48'0 0.0
2015-Jan-22 02:33N 51°30' E 000°47'0 0.1
2015-Jan-22 01:34N 51°30' E 000°47'0 0.1
2015-Jan-22 00:33N 51°30' E 000°47'0 0.0
2015-Jan-21 23:33N 51°30' E 000°47'0 0.0
2015-Jan-21 22:50N 51°30' E 000°47'0 0.0
2015-Jan-21 22:46N 51°30' E 000°47'0 0.0
2015-Jan-21 22:34N 51°30' E 000°47'0 0.0
2015-Jan-21 21:34N 51°30' E 000°47'0 0.0
2015-Jan-21 20:34N 51°30' E 000°47'0 0.1
2015-Jan-21 19:34N 51°30' E 000°48'0 0.0
2015-Jan-21 18:34N 51°30' E 000°48'0 0.0
2015-Jan-21 17:34N 51°30' E 000°48'0 0.0
2015-Jan-21 16:34N 51°30' E 000°48'0 0.0
2015-Jan-21 15:33N 51°30' E 000°48'0 0.0
2015-Jan-21 14:33N 51°30' E 000°48'0 0.1
2015-Jan-21 13:34N 51°30' E 000°47'0 0.1
2015-Jan-21 12:33N 51°30' E 000°47'0 0.0
2015-Jan-21 11:33N 51°30' E 000°47'0 0.0
2015-Jan-21 10:34N 51°30' E 000°47'0 0.0
2015-Jan-21 09:34N 51°30' E 000°47'0 0.0
2015-Jan-21 08:33N 51°30' E 000°47'0 0.1
2015-Jan-21 07:34N 51°30' E 000°47'0 0.0
2015-Jan-21 06:33N 51°30' E 000°47'0 0.1
2015-Jan-21 05:34N 51°30' E 000°47'0 0.0
2015-Jan-21 04:34N 51°30' E 000°48'0 0.0
2015-Jan-21 03:34N 51°30' E 000°48'0 0.0
2015-Jan-21 02:34N 51°30' E 000°48'0 0.1
2015-Jan-21 01:34N 51°30' E 000°47'0 0.1
2015-Jan-21 00:34N 51°30' E 000°47'0 0.0
2015-Jan-20 23:33N 51°30' E 000°47'0 0.0
2015-Jan-20 22:33N 51°30' E 000°47'0 0.0
2015-Jan-20 21:33N 51°30' E 000°47'0 0.0
2015-Jan-20 20:34N 51°30' E 000°47'0 0.1
2015-Jan-20 19:33N 51°30' E 000°47'0 0.1
2015-Jan-20 18:33N 51°30' E 000°48'0 0.0
2015-Jan-20 17:33N 51°30' E 000°48'0 0.0
2015-Jan-20 16:34N 51°30' E 000°48'0 0.0
2015-Jan-20 15:33N 51°30' E 000°48'0 0.0
2015-Jan-20 14:33N 51°30' E 000°48'0 0.0
2015-Jan-20 13:33N 51°30' E 000°48'0 0.1
2015-Jan-20 12:34N 51°30' E 000°47'0 0.1
2015-Jan-20 11:34N 51°30' E 000°47'0 0.0
2015-Jan-20 10:33N 51°30' E 000°47'0 0.0
2015-Jan-20 09:34N 51°30' E 000°47'0 0.0
2015-Jan-20 08:33N 51°30' E 000°47'0 0.1
2015-Jan-20 07:33N 51°30' E 000°47'0 0.1
2015-Jan-20 06:33N 51°30' E 000°48'0 0.0
2015-Jan-20 05:33N 51°30' E 000°48'0 0.0
2015-Jan-20 04:33N 51°30' E 000°48'0 0.0
2015-Jan-20 03:33N 51°30' E 000°48'0 0.0
2015-Jan-20 02:33N 51°30' E 000°48'0 0.0
2015-Jan-20 01:33N 51°30' E 000°48'0 0.1
2015-Jan-20 00:34N 51°30' E 000°47'0 0.1
2015-Jan-19 23:33N 51°30' E 000°47'0 0.0
2015-Jan-19 22:34N 51°30' E 000°47'0 0.0
2015-Jan-19 21:33N 51°30' E 000°47'0 0.0
2015-Jan-19 20:33N 51°30' E 000°47'0 0.0
2015-Jan-19 19:33N 51°30' E 000°47'0 0.0
2015-Jan-19 18:33N 51°30' E 000°47'0 0.1
2015-Jan-19 17:33N 51°30' E 000°48'0 0.0
2015-Jan-19 16:33N 51°30' E 000°48'0 0.0
2015-Jan-19 15:32N 51°30' E 000°48'0 0.0
2015-Jan-19 14:34N 51°30' E 000°48'0 0.0
2015-Jan-19 13:32N 51°30' E 000°48'0 0.0
2015-Jan-19 12:33N 51°30' E 000°48'0 0.1
2015-Jan-19 11:33N 51°30' E 000°47'0 0.0
2015-Jan-19 10:33N 51°30' E 000°47'0 0.0
2015-Jan-19 09:33N 51°30' E 000°47'0 0.0
2015-Jan-19 08:33N 51°30' E 000°47'0 0.0
2015-Jan-19 07:33N 51°30' E 000°47'0 0.0
2015-Jan-19 06:33N 51°30' E 000°47'0 0.1
2015-Jan-19 05:33N 51°30' E 000°48'0 0.0
2015-Jan-19 04:33N 51°30' E 000°48'0 0.0
2015-Jan-19 03:33N 51°30' E 000°48'0 0.0
2015-Jan-19 02:33N 51°30' E 000°48'0 0.0
2015-Jan-19 01:32N 51°30' E 000°48'0 0.0
2015-Jan-19 00:34N 51°30' E 000°48'0 0.0
2015-Jan-18 23:33N 51°30' E 000°48'0 0.1
2015-Jan-18 22:33N 51°30' E 000°47'0 0.0
2015-Jan-18 21:32N 51°30' E 000°47'0 0.0
2015-Jan-18 20:33N 51°30' E 000°47'0 0.0
2015-Jan-18 19:33N 51°30' E 000°47'0 0.0
2015-Jan-18 18:33N 51°30' E 000°47'0 0.1
2015-Jan-18 17:33N 51°30' E 000°47'0 0.1
2015-Jan-18 16:33N 51°30' E 000°48'0 0.0
2015-Jan-18 15:33N 51°30' E 000°48'0 0.0
2015-Jan-18 14:33N 51°30' E 000°48'0 0.0
2015-Jan-18 13:33N 51°30' E 000°48'0 0.0
2015-Jan-18 12:33N 51°30' E 000°48'0 0.0
2015-Jan-18 11:33N 51°30' E 000°48'0 0.1
2015-Jan-18 10:33N 51°30' E 000°47'0 0.0
2015-Jan-18 09:33N 51°30' E 000°47'0 0.0
2015-Jan-18 08:33N 51°30' E 000°47'0 0.0
2015-Jan-18 07:34N 51°30' E 000°47'0 0.0
2015-Jan-18 06:33N 51°30' E 000°47'0 0.0
2015-Jan-18 05:33N 51°30' E 000°47'0 0.1
2015-Jan-18 04:33N 51°30' E 000°47'0 0.1
2015-Jan-18 03:33N 51°30' E 000°48'0 0.0
2015-Jan-18 02:33N 51°30' E 000°48'0 0.0
2015-Jan-18 01:33N 51°30' E 000°48'0 0.0
2015-Jan-18 00:33N 51°30' E 000°48'0 0.0
2015-Jan-17 23:33N 51°30' E 000°47'0 0.1
2015-Jan-17 22:33N 51°30' E 000°47'0 0.1
2015-Jan-17 21:34N 51°30' E 000°47'0 0.0
2015-Jan-17 20:33N 51°30' E 000°47'0 0.0
2015-Jan-17 19:33N 51°30' E 000°47'0 0.0
2015-Jan-17 18:33N 51°30' E 000°47'0 0.0
2015-Jan-17 17:34N 51°30' E 000°47'0 0.1
2015-Jan-17 16:33N 51°30' E 000°47'0 0.1
2015-Jan-17 15:34N 51°30' E 000°48'0 0.0
2015-Jan-17 14:34N 51°30' E 000°48'0 0.0
2015-Jan-17 13:33N 51°30' E 000°48'0 0.0
2015-Jan-17 12:34N 51°30' E 000°48'0 0.0
2015-Jan-17 11:34N 51°30' E 000°48'0 0.0
2015-Jan-17 10:34N 51°30' E 000°48'0 0.1
2015-Jan-17 09:34N 51°30' E 000°47'0 0.1
2015-Jan-17 08:34N 51°30' E 000°47'0 0.1
2015-Jan-17 07:34N 51°30' E 000°47'0 0.0
2015-Jan-17 06:34N 51°30' E 000°47'0 0.0
2015-Jan-17 05:34N 51°30' E 000°47'0 0.1
2015-Jan-17 04:34N 51°30' E 000°47'0 0.0
2015-Jan-17 03:34N 51°30' E 000°47'0 0.0
2015-Jan-17 02:34N 51°30' E 000°47'0 0.0
2015-Jan-17 01:32N 51°30' E 000°47'0 0.0
2015-Jan-17 00:34N 51°30' E 000°47'0 0.0
2015-Jan-16 23:34N 51°30' E 000°47'0 0.0
2015-Jan-16 22:33N 51°30' E 000°47'0 0.0
2015-Jan-16 21:34N 51°30' E 000°47'0 0.0
2015-Jan-16 20:34N 51°30' E 000°47'0 0.1
2015-Jan-16 19:33N 51°30' E 000°47'1 1.5
2015-Jan-16 18:33N 51°30' E 000°50'1111.3
2015-Jan-16 17:34N 51°29' E 001°08'1111.2
2015-Jan-16 16:33N 51°28' E 001°25'2 2.4
2015-Jan-16 15:33N 51°25' E 001°27'0 0.0
2015-Jan-16 14:33N 51°25' E 001°27'0 0.0
2015-Jan-16 13:34N 51°25' E 001°27'0 0.0
2015-Jan-16 12:33N 51°25' E 001°27'0 0.0
2015-Jan-16 11:33N 51°25' E 001°27'0 0.0
2015-Jan-16 10:34N 51°25' E 001°27'0 0.1
2015-Jan-16 09:34N 51°25' E 001°27'0 0.0
2015-Jan-16 08:33N 51°25' E 001°27'0 0.1
2015-Jan-16 07:33N 51°25' E 001°27'0 0.0
2015-Jan-16 06:33N 51°25' E 001°27'0 0.0
2015-Jan-16 05:33N 51°25' E 001°26'0 0.0
2015-Jan-16 04:33N 51°25' E 001°27'0 0.2
2015-Jan-16 03:34N 51°25' E 001°27'0 0.0
2015-Jan-16 02:33N 51°25' E 001°27'0 0.0
2015-Jan-16 01:33N 51°25' E 001°27'  

Dump ship's entire track history